EZY42RT LFRZ-LXGB
Flight info
| Callsign | EZY42RT |
|---|---|
| Flight time | 1h 54m |
| Altitude | 35000 |
| Route | ERIGA UZ218 FUJTI DCT NENEM P75 NEA N864 OGROH |
| Aircraft | A320/M-SDE3FGHIRWY/LB1 |
Departure
| Time | 2026-04-29 14:06 |
|---|---|
| Airport | Saint-Nazaire-Montoir Airport (LFRZ) |
Arrival
| Time | 2026-04-29 16:00 |
|---|---|
| Airport | Gibraltar Airport (LXGB) |
| Time | Latitude | Longitude | Altitude | Speed | Heading |
|---|---|---|---|---|---|
| 2026-04-29 14:04 | 47.31014 | -2.15939 | 21 ft | 16 kts | 253° |
| 2026-04-29 14:04 | 47.30973 | -2.16140 | 23 ft | 25 kts | 254° |
| 2026-04-29 14:05 | 47.30949 | -2.16393 | 23 ft | 13 kts | 277° |
| 2026-04-29 14:05 | 47.30912 | -2.16426 | 23 ft | 3 kts | 110° |
| 2026-04-29 14:05 | 47.30926 | -2.16377 | 23 ft | 0 kts | 73° |
| 2026-04-29 14:05 | 47.30943 | -2.16296 | 22 ft | 37 kts | 73° |
| 2026-04-29 14:06 | 47.31092 | -2.15587 | 23 ft | 105 kts | 72° |
| 2026-04-29 14:06 | 47.31357 | -2.14319 | 106 ft | 147 kts | 72° |
| 2026-04-29 14:06 | 47.31652 | -2.12841 | 738 ft | 150 kts | 73° |
| 2026-04-29 14:06 | 47.31919 | -2.11345 | 1379 ft | 156 kts | 85° |
| 2026-04-29 14:07 | 47.31638 | -2.09734 | 1647 ft | 179 kts | 127° |
| 2026-04-29 14:07 | 47.30481 | -2.08810 | 1994 ft | 210 kts | 170° |
| 2026-04-29 14:07 | 47.28927 | -2.09149 | 2336 ft | 243 kts | 193° |
| 2026-04-29 14:07 | 47.27295 | -2.10098 | 2976 ft | 258 kts | 199° |
| 2026-04-29 14:08 | 47.25665 | -2.11237 | 3862 ft | 261 kts | 200° |
| 2026-04-29 14:08 | 47.24019 | -2.12414 | 4718 ft | 265 kts | 200° |
| 2026-04-29 14:08 | 47.22369 | -2.13563 | 5537 ft | 268 kts | 199° |
| 2026-04-29 14:08 | 47.20635 | -2.14731 | 6457 ft | 270 kts | 199° |
| 2026-04-29 14:09 | 47.18917 | -2.15853 | 7286 ft | 271 kts | 199° |
| 2026-04-29 14:09 | 47.17206 | -2.16946 | 8121 ft | 272 kts | 198° |
| 2026-04-29 14:09 | 47.15459 | -2.18046 | 8994 ft | 273 kts | 198° |
| 2026-04-29 14:09 | 47.13710 | -2.19136 | 9833 ft | 275 kts | 198° |
| 2026-04-29 14:10 | 47.11895 | -2.20264 | 10410 ft | 287 kts | 198° |
| 2026-04-29 14:10 | 47.10007 | -2.21427 | 10598 ft | 310 kts | 198° |
| 2026-04-29 14:10 | 47.07935 | -2.22704 | 10976 ft | 325 kts | 199° |
| 2026-04-29 14:10 | 47.05839 | -2.24008 | 11623 ft | 329 kts | 199° |
| 2026-04-29 14:11 | 47.03751 | -2.25309 | 12331 ft | 332 kts | 200° |
| 2026-04-29 14:11 | 47.01618 | -2.26636 | 13043 ft | 334 kts | 200° |
| 2026-04-29 14:11 | 46.99469 | -2.27972 | 13749 ft | 337 kts | 200° |
| 2026-04-29 14:11 | 46.97302 | -2.29316 | 14370 ft | 339 kts | 200° |
| 2026-04-29 14:12 | 46.95118 | -2.30670 | 14975 ft | 342 kts | 200° |
| 2026-04-29 14:12 | 46.92914 | -2.32034 | 15556 ft | 346 kts | 200° |
| 2026-04-29 14:12 | 46.90688 | -2.33410 | 16146 ft | 349 kts | 200° |
| 2026-04-29 14:12 | 46.88444 | -2.34798 | 16733 ft | 352 kts | 200° |
| 2026-04-29 14:13 | 46.86186 | -2.36222 | 17301 ft | 355 kts | 204° |
| 2026-04-29 14:13 | 46.84030 | -2.38032 | 17869 ft | 360 kts | 208° |
| 2026-04-29 14:13 | 46.81879 | -2.39930 | 18399 ft | 363 kts | 208° |
| 2026-04-29 14:13 | 46.79710 | -2.41835 | 18892 ft | 365 kts | 208° |
| 2026-04-29 14:14 | 46.77522 | -2.43754 | 19376 ft | 368 kts | 208° |
| 2026-04-29 14:14 | 46.75323 | -2.45680 | 19879 ft | 370 kts | 208° |
| 2026-04-29 14:14 | 46.73078 | -2.47643 | 20364 ft | 372 kts | 208° |
| 2026-04-29 14:14 | 46.70875 | -2.49566 | 20827 ft | 375 kts | 208° |
| 2026-04-29 14:15 | 46.68631 | -2.51524 | 21302 ft | 377 kts | 208° |
| 2026-04-29 14:15 | 46.66352 | -2.53514 | 21761 ft | 380 kts | 208° |
| 2026-04-29 14:15 | 46.64103 | -2.55474 | 22222 ft | 382 kts | 208° |
| 2026-04-29 14:15 | 46.61813 | -2.57465 | 22688 ft | 384 kts | 208° |
| 2026-04-29 14:16 | 46.59514 | -2.59460 | 23143 ft | 386 kts | 208° |
| 2026-04-29 14:16 | 46.57196 | -2.61475 | 23576 ft | 389 kts | 208° |
| 2026-04-29 14:16 | 46.54868 | -2.63499 | 23943 ft | 391 kts | 208° |
| 2026-04-29 14:16 | 46.52532 | -2.65525 | 24322 ft | 392 kts | 208° |
| 2026-04-29 14:17 | 46.50186 | -2.67557 | 24714 ft | 393 kts | 208° |
| 2026-04-29 14:17 | 46.47838 | -2.69589 | 25089 ft | 394 kts | 208° |
| 2026-04-29 14:17 | 46.45476 | -2.71630 | 25453 ft | 395 kts | 208° |
| 2026-04-29 14:17 | 46.43108 | -2.73673 | 25816 ft | 397 kts | 208° |
| 2026-04-29 14:18 | 46.40729 | -2.75726 | 26185 ft | 398 kts | 208° |
| 2026-04-29 14:18 | 46.38345 | -2.77780 | 26550 ft | 400 kts | 208° |
| 2026-04-29 14:18 | 46.35956 | -2.79840 | 26898 ft | 401 kts | 208° |
| 2026-04-29 14:18 | 46.33542 | -2.81920 | 27283 ft | 402 kts | 208° |
| 2026-04-29 14:19 | 46.31147 | -2.83980 | 27620 ft | 403 kts | 208° |
| 2026-04-29 14:19 | 46.28709 | -2.85999 | 27949 ft | 404 kts | 204° |
| 2026-04-29 14:19 | 46.26106 | -2.87483 | 28264 ft | 403 kts | 195° |
| 2026-04-29 14:19 | 46.23355 | -2.88290 | 28574 ft | 404 kts | 186° |
| 2026-04-29 14:20 | 46.20557 | -2.88645 | 28870 ft | 405 kts | 185° |
| 2026-04-29 14:20 | 46.17743 | -2.88997 | 29172 ft | 406 kts | 185° |
| 2026-04-29 14:20 | 46.14918 | -2.89355 | 29469 ft | 408 kts | 185° |
| 2026-04-29 14:20 | 46.12085 | -2.89715 | 29752 ft | 409 kts | 185° |
| 2026-04-29 14:21 | 46.09244 | -2.90076 | 30024 ft | 411 kts | 185° |
| 2026-04-29 14:21 | 46.06397 | -2.90436 | 30259 ft | 412 kts | 185° |
| 2026-04-29 14:21 | 46.03533 | -2.90797 | 30481 ft | 413 kts | 185° |
| 2026-04-29 14:21 | 46.00666 | -2.91162 | 30765 ft | 413 kts | 185° |
| 2026-04-29 14:22 | 45.97771 | -2.91529 | 31116 ft | 411 kts | 185° |
| 2026-04-29 14:22 | 45.94963 | -2.91883 | 31435 ft | 410 kts | 185° |
| 2026-04-29 14:22 | 45.92126 | -2.92240 | 31752 ft | 409 kts | 185° |
| 2026-04-29 14:22 | 45.89291 | -2.92596 | 32087 ft | 408 kts | 185° |
| 2026-04-29 14:23 | 45.86446 | -2.92955 | 32411 ft | 407 kts | 186° |
| 2026-04-29 14:23 | 45.83619 | -2.93312 | 32750 ft | 405 kts | 186° |
| 2026-04-29 14:23 | 45.80813 | -2.93661 | 33073 ft | 404 kts | 186° |
| 2026-04-29 14:23 | 45.78057 | -2.94002 | 33375 ft | 403 kts | 186° |
| 2026-04-29 14:24 | 45.75257 | -2.94350 | 33685 ft | 403 kts | 186° |
| 2026-04-29 14:24 | 45.72467 | -2.94702 | 33977 ft | 401 kts | 186° |
| 2026-04-29 14:24 | 45.69650 | -2.95059 | 34239 ft | 401 kts | 186° |
| 2026-04-29 14:24 | 45.66869 | -2.95408 | 34487 ft | 401 kts | 186° |
| 2026-04-29 14:25 | 45.64087 | -2.95755 | 34703 ft | 402 kts | 186° |
| 2026-04-29 14:25 | 45.61302 | -2.96101 | 34892 ft | 403 kts | 186° |
| 2026-04-29 14:25 | 45.55725 | -2.96790 | 34943 ft | 401 kts | 186° |
| 2026-04-29 14:26 | 45.50167 | -2.97477 | 34943 ft | 401 kts | 186° |
| 2026-04-29 14:26 | 45.44602 | -2.98161 | 34940 ft | 402 kts | 186° |
| 2026-04-29 14:27 | 45.39030 | -2.98856 | 34934 ft | 402 kts | 186° |
| 2026-04-29 14:28 | 45.30673 | -2.99899 | 34930 ft | 402 kts | 186° |
| 2026-04-29 14:28 | 45.25094 | -3.00576 | 34930 ft | 403 kts | 186° |
| 2026-04-29 14:29 | 45.19509 | -3.01260 | 34932 ft | 403 kts | 186° |
| 2026-04-29 14:29 | 45.13929 | -3.01939 | 34928 ft | 403 kts | 186° |
| 2026-04-29 14:30 | 45.08305 | -3.02624 | 34930 ft | 403 kts | 186° |
| 2026-04-29 14:30 | 45.02754 | -3.03307 | 34927 ft | 403 kts | 186° |
| 2026-04-29 14:31 | 44.97129 | -3.03997 | 34932 ft | 403 kts | 186° |
| 2026-04-29 14:31 | 44.92485 | -3.04567 | 34921 ft | 403 kts | 186° |
| 2026-04-29 14:32 | 44.86903 | -3.05244 | 34920 ft | 403 kts | 186° |
| 2026-04-29 14:32 | 44.81322 | -3.05913 | 34940 ft | 402 kts | 186° |
| 2026-04-29 14:33 | 44.75752 | -3.06588 | 34929 ft | 401 kts | 186° |
| 2026-04-29 14:33 | 44.70187 | -3.07264 | 34926 ft | 401 kts | 186° |
| 2026-04-29 14:34 | 44.64597 | -3.07943 | 34922 ft | 401 kts | 186° |
| 2026-04-29 14:34 | 44.59076 | -3.08601 | 34918 ft | 401 kts | 186° |
| 2026-04-29 14:35 | 44.53481 | -3.09270 | 34903 ft | 401 kts | 186° |
| 2026-04-29 14:35 | 44.47921 | -3.09945 | 34899 ft | 401 kts | 186° |
| 2026-04-29 14:36 | 44.42350 | -3.10616 | 34898 ft | 402 kts | 186° |
| 2026-04-29 14:36 | 44.36774 | -3.11276 | 34893 ft | 402 kts | 186° |
| 2026-04-29 14:37 | 44.31197 | -3.11939 | 34886 ft | 403 kts | 186° |
| 2026-04-29 14:37 | 44.25608 | -3.12603 | 34886 ft | 403 kts | 186° |
| 2026-04-29 14:38 | 44.20008 | -3.13273 | 34889 ft | 404 kts | 186° |
| 2026-04-29 14:38 | 44.14407 | -3.13936 | 34880 ft | 404 kts | 186° |
| 2026-04-29 14:39 | 44.08796 | -3.14599 | 34880 ft | 405 kts | 186° |
| 2026-04-29 14:39 | 44.03226 | -3.15956 | 34883 ft | 404 kts | 199° |
| 2026-04-29 14:40 | 43.97912 | -3.18568 | 34874 ft | 405 kts | 199° |
| 2026-04-29 14:40 | 43.92588 | -3.21180 | 34871 ft | 406 kts | 199° |
| 2026-04-29 14:41 | 43.87257 | -3.23782 | 34874 ft | 407 kts | 199° |
| 2026-04-29 14:41 | 43.81917 | -3.26380 | 34876 ft | 407 kts | 199° |
| 2026-04-29 14:42 | 43.76567 | -3.28978 | 34873 ft | 407 kts | 199° |
| 2026-04-29 14:42 | 43.71251 | -3.31557 | 34873 ft | 408 kts | 199° |
| 2026-04-29 14:43 | 43.65858 | -3.34173 | 34874 ft | 408 kts | 199° |
| 2026-04-29 14:43 | 43.60530 | -3.36748 | 34875 ft | 409 kts | 199° |
| 2026-04-29 14:44 | 43.55159 | -3.39335 | 34873 ft | 409 kts | 199° |
| 2026-04-29 14:44 | 43.49778 | -3.41919 | 34876 ft | 409 kts | 199° |
| 2026-04-29 14:45 | 43.44401 | -3.44508 | 34902 ft | 409 kts | 199° |
| 2026-04-29 14:45 | 43.39025 | -3.47093 | 34899 ft | 409 kts | 199° |
| 2026-04-29 14:46 | 43.33649 | -3.49669 | 34898 ft | 409 kts | 198° |
| 2026-04-29 14:46 | 43.28275 | -3.52237 | 34893 ft | 409 kts | 198° |
| 2026-04-29 14:47 | 43.22902 | -3.54805 | 34889 ft | 409 kts | 198° |
| 2026-04-29 14:47 | 43.17529 | -3.57366 | 34892 ft | 409 kts | 198° |
| 2026-04-29 14:48 | 43.12147 | -3.59921 | 34879 ft | 410 kts | 198° |
| 2026-04-29 14:48 | 43.06749 | -3.62478 | 34878 ft | 411 kts | 198° |
| 2026-04-29 14:49 | 43.01338 | -3.65039 | 34878 ft | 412 kts | 198° |
| 2026-04-29 14:49 | 42.95924 | -3.67601 | 34885 ft | 412 kts | 198° |
| 2026-04-29 14:50 | 42.90496 | -3.70167 | 34882 ft | 413 kts | 199° |
| 2026-04-29 14:50 | 42.85050 | -3.72736 | 34886 ft | 415 kts | 198° |
| 2026-04-29 14:51 | 42.79595 | -3.75295 | 34883 ft | 415 kts | 198° |
| 2026-04-29 14:51 | 42.74135 | -3.77855 | 34890 ft | 415 kts | 198° |
| 2026-04-29 14:52 | 42.68668 | -3.80425 | 34908 ft | 415 kts | 199° |
| 2026-04-29 14:52 | 42.63206 | -3.82982 | 34928 ft | 415 kts | 198° |
| 2026-04-29 14:53 | 42.57746 | -3.85531 | 34932 ft | 415 kts | 198° |
| 2026-04-29 14:53 | 42.52294 | -3.88068 | 34918 ft | 414 kts | 198° |
| 2026-04-29 14:54 | 42.46835 | -3.90602 | 34911 ft | 415 kts | 198° |
| 2026-04-29 14:54 | 42.41339 | -3.93153 | 34912 ft | 415 kts | 198° |
| 2026-04-29 14:55 | 42.35876 | -3.95678 | 34913 ft | 415 kts | 198° |
| 2026-04-29 14:55 | 42.30445 | -3.98182 | 34916 ft | 415 kts | 198° |
| 2026-04-29 14:56 | 42.24991 | -4.00704 | 34923 ft | 414 kts | 198° |
| 2026-04-29 14:56 | 42.19539 | -4.03214 | 34928 ft | 414 kts | 198° |
| 2026-04-29 14:57 | 42.14087 | -4.05722 | 34927 ft | 414 kts | 198° |
| 2026-04-29 14:57 | 42.08601 | -4.08245 | 34920 ft | 414 kts | 198° |
| 2026-04-29 14:58 | 42.03125 | -4.10632 | 34916 ft | 414 kts | 192° |
| 2026-04-29 14:58 | 41.97410 | -4.11522 | 34914 ft | 414 kts | 185° |
| 2026-04-29 14:59 | 41.91668 | -4.12174 | 34917 ft | 414 kts | 185° |
| 2026-04-29 14:59 | 41.85919 | -4.12839 | 34908 ft | 414 kts | 186° |
| 2026-04-29 15:00 | 41.80166 | -4.13499 | 34911 ft | 415 kts | 186° |
| 2026-04-29 15:00 | 41.74413 | -4.14143 | 34914 ft | 415 kts | 186° |
| 2026-04-29 15:01 | 41.68654 | -4.14791 | 34911 ft | 415 kts | 186° |
| 2026-04-29 15:01 | 41.62910 | -4.15445 | 34922 ft | 414 kts | 186° |
| 2026-04-29 15:02 | 41.57173 | -4.16097 | 34921 ft | 414 kts | 186° |
| 2026-04-29 15:02 | 41.51434 | -4.16744 | 34918 ft | 413 kts | 186° |
| 2026-04-29 15:03 | 41.45707 | -4.17380 | 34901 ft | 413 kts | 187° |
| 2026-04-29 15:03 | 41.39968 | -4.18018 | 34906 ft | 413 kts | 187° |
| 2026-04-29 15:04 | 41.34237 | -4.18669 | 34911 ft | 414 kts | 187° |
| 2026-04-29 15:04 | 41.28501 | -4.19315 | 34913 ft | 414 kts | 187° |
| 2026-04-29 15:05 | 41.22760 | -4.19961 | 34913 ft | 413 kts | 187° |
| 2026-04-29 15:05 | 41.17035 | -4.20598 | 34919 ft | 413 kts | 187° |
| 2026-04-29 15:06 | 41.12285 | -4.21124 | 34917 ft | 412 kts | 187° |
| 2026-04-29 15:06 | 41.06522 | -4.21772 | 34924 ft | 412 kts | 187° |
| 2026-04-29 15:07 | 41.00811 | -4.22405 | 34922 ft | 412 kts | 188° |
| 2026-04-29 15:07 | 40.95098 | -4.23034 | 34930 ft | 411 kts | 188° |
| 2026-04-29 15:08 | 40.89396 | -4.23660 | 34934 ft | 411 kts | 188° |
| 2026-04-29 15:08 | 40.83699 | -4.24289 | 34929 ft | 411 kts | 188° |
| 2026-04-29 15:09 | 40.77971 | -4.24924 | 34930 ft | 410 kts | 188° |
| 2026-04-29 15:09 | 40.72286 | -4.25550 | 34931 ft | 410 kts | 188° |
| 2026-04-29 15:10 | 40.66612 | -4.26168 | 34929 ft | 410 kts | 188° |
| 2026-04-29 15:10 | 40.60933 | -4.26794 | 34933 ft | 409 kts | 188° |
| 2026-04-29 15:11 | 40.55295 | -4.27419 | 34928 ft | 409 kts | 188° |
| 2026-04-29 15:11 | 40.49617 | -4.28037 | 34929 ft | 409 kts | 188° |
| 2026-04-29 15:12 | 40.43944 | -4.28649 | 34927 ft | 409 kts | 188° |
| 2026-04-29 15:12 | 40.38272 | -4.29265 | 34910 ft | 409 kts | 189° |
| 2026-04-29 15:13 | 40.32597 | -4.29884 | 34914 ft | 409 kts | 189° |
| 2026-04-29 15:13 | 40.26926 | -4.30504 | 34916 ft | 409 kts | 189° |
| 2026-04-29 15:14 | 40.21250 | -4.31120 | 34915 ft | 409 kts | 189° |
| 2026-04-29 15:14 | 40.15526 | -4.31732 | 34905 ft | 410 kts | 189° |
| 2026-04-29 15:15 | 40.09845 | -4.32345 | 34905 ft | 410 kts | 190° |
| 2026-04-29 15:15 | 40.04156 | -4.32962 | 34910 ft | 410 kts | 190° |
| 2026-04-29 15:16 | 39.98460 | -4.33582 | 34914 ft | 411 kts | 190° |
| 2026-04-29 15:16 | 39.92806 | -4.34440 | 34896 ft | 408 kts | 194° |
| 2026-04-29 15:17 | 39.87222 | -4.35715 | 34901 ft | 407 kts | 195° |
| 2026-04-29 15:17 | 39.81644 | -4.37033 | 34913 ft | 407 kts | 195° |
| 2026-04-29 15:18 | 39.76011 | -4.38274 | 34913 ft | 408 kts | 194° |
| 2026-04-29 15:18 | 39.70411 | -4.39462 | 34913 ft | 408 kts | 194° |
| 2026-04-29 15:19 | 39.64808 | -4.40648 | 34918 ft | 408 kts | 194° |
| 2026-04-29 15:19 | 39.59211 | -4.41838 | 34916 ft | 408 kts | 194° |
| 2026-04-29 15:20 | 39.53621 | -4.43029 | 34911 ft | 407 kts | 195° |
| 2026-04-29 15:20 | 39.48015 | -4.44227 | 34910 ft | 408 kts | 195° |
| 2026-04-29 15:21 | 39.42408 | -4.45416 | 34916 ft | 409 kts | 195° |
| 2026-04-29 15:21 | 39.36791 | -4.46602 | 34926 ft | 409 kts | 195° |
| 2026-04-29 15:22 | 39.31174 | -4.47785 | 34932 ft | 409 kts | 195° |
| 2026-04-29 15:22 | 39.25561 | -4.48973 | 34924 ft | 409 kts | 195° |
| 2026-04-29 15:23 | 39.19938 | -4.50151 | 34927 ft | 409 kts | 195° |
| 2026-04-29 15:23 | 39.14316 | -4.51332 | 34930 ft | 409 kts | 195° |
| 2026-04-29 15:24 | 39.08703 | -4.52523 | 34935 ft | 409 kts | 195° |
| 2026-04-29 15:24 | 39.03087 | -4.53712 | 34901 ft | 409 kts | 195° |
| 2026-04-29 15:25 | 38.97471 | -4.54891 | 34917 ft | 410 kts | 195° |
| 2026-04-29 15:25 | 38.91832 | -4.56068 | 34929 ft | 411 kts | 195° |
| 2026-04-29 15:26 | 38.86184 | -4.57238 | 34928 ft | 411 kts | 195° |
| 2026-04-29 15:26 | 38.80542 | -4.58415 | 34950 ft | 411 kts | 195° |
| 2026-04-29 15:27 | 38.74850 | -4.59600 | 34940 ft | 411 kts | 195° |
| 2026-04-29 15:27 | 38.69238 | -4.60768 | 34944 ft | 412 kts | 195° |
| 2026-04-29 15:28 | 38.63577 | -4.61942 | 34950 ft | 412 kts | 195° |
| 2026-04-29 15:28 | 38.57913 | -4.63114 | 34952 ft | 412 kts | 195° |
| 2026-04-29 15:29 | 38.52239 | -4.64289 | 34939 ft | 413 kts | 195° |
| 2026-04-29 15:30 | 38.40878 | -4.66630 | 34954 ft | 414 kts | 195° |
| 2026-04-29 15:30 | 38.35196 | -4.67786 | 34958 ft | 414 kts | 195° |
| 2026-04-29 15:31 | 38.29514 | -4.68952 | 34963 ft | 414 kts | 195° |
| 2026-04-29 15:31 | 38.23830 | -4.70124 | 34966 ft | 414 kts | 195° |
| 2026-04-29 15:32 | 38.18147 | -4.71285 | 34970 ft | 414 kts | 195° |
| 2026-04-29 15:32 | 38.12458 | -4.72451 | 34972 ft | 414 kts | 195° |
| 2026-04-29 15:33 | 38.06774 | -4.73617 | 34954 ft | 414 kts | 195° |
| 2026-04-29 15:33 | 38.01084 | -4.74781 | 34960 ft | 414 kts | 195° |
| 2026-04-29 15:34 | 37.95386 | -4.75939 | 34970 ft | 415 kts | 195° |
| 2026-04-29 15:34 | 37.89689 | -4.77094 | 34975 ft | 415 kts | 195° |
| 2026-04-29 15:35 | 37.83992 | -4.78249 | 34949 ft | 415 kts | 195° |
| 2026-04-29 15:35 | 37.78291 | -4.79399 | 34956 ft | 415 kts | 195° |
| 2026-04-29 15:36 | 37.72591 | -4.80549 | 34962 ft | 415 kts | 195° |
| 2026-04-29 15:36 | 37.66881 | -4.81710 | 34700 ft | 416 kts | 195° |
| 2026-04-29 15:36 | 37.64024 | -4.82289 | 34457 ft | 416 kts | 195° |
| 2026-04-29 15:37 | 37.61169 | -4.82866 | 34201 ft | 416 kts | 195° |
| 2026-04-29 15:37 | 37.58306 | -4.83443 | 33868 ft | 418 kts | 195° |
| 2026-04-29 15:37 | 37.55418 | -4.84026 | 32935 ft | 422 kts | 195° |
| 2026-04-29 15:37 | 37.52541 | -4.84603 | 32491 ft | 415 kts | 195° |
| 2026-04-29 15:38 | 37.49704 | -4.85172 | 31944 ft | 411 kts | 195° |
| 2026-04-29 15:38 | 37.46889 | -4.85734 | 31409 ft | 407 kts | 195° |
| 2026-04-29 15:38 | 37.44103 | -4.86290 | 30885 ft | 404 kts | 195° |
| 2026-04-29 15:38 | 37.41337 | -4.86844 | 30360 ft | 401 kts | 195° |
| 2026-04-29 15:39 | 37.38591 | -4.87398 | 29827 ft | 398 kts | 195° |
| 2026-04-29 15:39 | 37.36754 | -4.87768 | 29420 ft | 395 kts | 194° |
| 2026-04-29 15:39 | 37.34058 | -4.88308 | 28948 ft | 389 kts | 194° |
| 2026-04-29 15:39 | 37.31396 | -4.88838 | 28458 ft | 385 kts | 194° |
| 2026-04-29 15:40 | 37.28730 | -4.89367 | 27959 ft | 381 kts | 194° |
| 2026-04-29 15:40 | 37.26125 | -4.89881 | 27473 ft | 377 kts | 194° |
| 2026-04-29 15:40 | 37.23549 | -4.90394 | 27006 ft | 373 kts | 194° |
| 2026-04-29 15:40 | 37.20998 | -4.90905 | 26551 ft | 369 kts | 195° |
| 2026-04-29 15:41 | 37.18474 | -4.91410 | 26095 ft | 366 kts | 194° |
| 2026-04-29 15:41 | 37.15966 | -4.91910 | 25662 ft | 362 kts | 194° |
| 2026-04-29 15:41 | 37.13487 | -4.92401 | 25230 ft | 359 kts | 194° |
| 2026-04-29 15:41 | 37.11038 | -4.92886 | 24814 ft | 355 kts | 195° |
| 2026-04-29 15:42 | 37.08610 | -4.93365 | 24386 ft | 352 kts | 194° |
| 2026-04-29 15:42 | 37.06170 | -4.93827 | 23964 ft | 351 kts | 192° |
| 2026-04-29 15:42 | 37.03713 | -4.93901 | 23521 ft | 355 kts | 184° |
| 2026-04-29 15:42 | 37.01249 | -4.93769 | 23026 ft | 354 kts | 184° |
| 2026-04-29 15:43 | 36.98801 | -4.93641 | 22575 ft | 350 kts | 184° |
| 2026-04-29 15:43 | 36.96379 | -4.93515 | 22143 ft | 347 kts | 183° |
| 2026-04-29 15:43 | 36.93971 | -4.93388 | 21698 ft | 345 kts | 183° |
| 2026-04-29 15:43 | 36.91585 | -4.93262 | 21265 ft | 343 kts | 183° |
| 2026-04-29 15:44 | 36.89199 | -4.93141 | 20812 ft | 341 kts | 183° |
| 2026-04-29 15:44 | 36.86833 | -4.93023 | 20364 ft | 340 kts | 183° |
| 2026-04-29 15:44 | 36.84473 | -4.92905 | 19919 ft | 339 kts | 183° |
| 2026-04-29 15:44 | 36.82118 | -4.92785 | 19472 ft | 338 kts | 182° |
| 2026-04-29 15:45 | 36.79780 | -4.92664 | 19037 ft | 337 kts | 182° |
| 2026-04-29 15:45 | 36.77423 | -4.92544 | 18580 ft | 338 kts | 182° |
| 2026-04-29 15:45 | 36.75078 | -4.92425 | 18118 ft | 338 kts | 182° |
| 2026-04-29 15:45 | 36.72732 | -4.92308 | 17637 ft | 337 kts | 182° |
| 2026-04-29 15:46 | 36.70399 | -4.92189 | 17197 ft | 335 kts | 181° |
| 2026-04-29 15:46 | 36.68078 | -4.92070 | 16762 ft | 332 kts | 181° |
| 2026-04-29 15:46 | 36.65776 | -4.91951 | 16329 ft | 330 kts | 181° |
| 2026-04-29 15:46 | 36.63482 | -4.91832 | 15894 ft | 329 kts | 181° |
| 2026-04-29 15:47 | 36.61195 | -4.91713 | 15468 ft | 329 kts | 181° |
| 2026-04-29 15:47 | 36.58911 | -4.91596 | 15044 ft | 329 kts | 181° |
| 2026-04-29 15:47 | 36.56623 | -4.91479 | 14611 ft | 329 kts | 180° |
| 2026-04-29 15:47 | 36.54340 | -4.91364 | 14180 ft | 327 kts | 180° |
| 2026-04-29 15:48 | 36.52044 | -4.91252 | 13522 ft | 334 kts | 180° |
| 2026-04-29 15:48 | 36.49727 | -4.91135 | 13035 ft | 332 kts | 180° |
| 2026-04-29 15:48 | 36.47429 | -4.91016 | 12605 ft | 329 kts | 180° |
| 2026-04-29 15:48 | 36.45153 | -4.90897 | 12179 ft | 326 kts | 180° |
| 2026-04-29 15:49 | 36.42898 | -4.90780 | 11750 ft | 323 kts | 180° |
| 2026-04-29 15:49 | 36.40663 | -4.90663 | 11321 ft | 321 kts | 180° |
| 2026-04-29 15:49 | 36.38439 | -4.90546 | 10888 ft | 319 kts | 180° |
| 2026-04-29 15:49 | 36.36231 | -4.90431 | 10463 ft | 317 kts | 180° |
| 2026-04-29 15:50 | 36.34038 | -4.90316 | 10166 ft | 311 kts | 180° |
| 2026-04-29 15:50 | 36.31916 | -4.90205 | 10046 ft | 299 kts | 180° |
| 2026-04-29 15:50 | 36.29871 | -4.90097 | 9917 ft | 289 kts | 180° |
| 2026-04-29 15:50 | 36.27879 | -4.89994 | 9613 ft | 285 kts | 180° |
| 2026-04-29 15:51 | 36.25896 | -4.89894 | 9209 ft | 284 kts | 180° |
| 2026-04-29 15:51 | 36.23925 | -4.89795 | 8859 ft | 282 kts | 180° |
| 2026-04-29 15:51 | 36.21974 | -4.89698 | 8459 ft | 281 kts | 180° |
| 2026-04-29 15:51 | 36.20033 | -4.89602 | 8112 ft | 278 kts | 180° |
| 2026-04-29 15:52 | 36.18103 | -4.89505 | 7700 ft | 277 kts | 180° |
| 2026-04-29 15:52 | 36.16187 | -4.89409 | 7353 ft | 274 kts | 180° |
| 2026-04-29 15:52 | 36.14284 | -4.89354 | 6935 ft | 272 kts | 187° |
| 2026-04-29 15:52 | 36.12529 | -4.90012 | 6531 ft | 260 kts | 207° |
| 2026-04-29 15:53 | 36.10958 | -4.91054 | 6112 ft | 252 kts | 211° |
| 2026-04-29 15:53 | 36.09698 | -4.92467 | 5683 ft | 243 kts | 236° |
| 2026-04-29 15:53 | 36.08925 | -4.94292 | 5259 ft | 237 kts | 255° |
| 2026-04-29 15:53 | 36.08852 | -4.96298 | 4850 ft | 234 kts | 275° |
| 2026-04-29 15:54 | 36.09244 | -4.98241 | 4424 ft | 232 kts | 286° |
| 2026-04-29 15:54 | 36.09771 | -5.00112 | 3992 ft | 229 kts | 287° |
| 2026-04-29 15:54 | 36.10301 | -5.01952 | 3566 ft | 225 kts | 287° |
| 2026-04-29 15:54 | 36.10816 | -5.03766 | 3150 ft | 222 kts | 287° |
| 2026-04-29 15:55 | 36.11315 | -5.05554 | 2726 ft | 219 kts | 288° |
| 2026-04-29 15:55 | 36.11806 | -5.07350 | 2330 ft | 215 kts | 287° |
| 2026-04-29 15:55 | 36.12267 | -5.09064 | 2076 ft | 206 kts | 287° |
| 2026-04-29 15:55 | 36.12708 | -5.10722 | 1828 ft | 200 kts | 288° |
| 2026-04-29 15:56 | 36.13136 | -5.12346 | 1617 ft | 196 kts | 287° |
| 2026-04-29 15:56 | 36.13545 | -5.13898 | 1515 ft | 183 kts | 287° |
| 2026-04-29 15:56 | 36.13900 | -5.15339 | 1499 ft | 167 kts | 283° |
| 2026-04-29 15:56 | 36.14161 | -5.16669 | 1507 ft | 159 kts | 281° |
| 2026-04-29 15:57 | 36.14413 | -5.18006 | 1505 ft | 160 kts | 281° |
| 2026-04-29 15:57 | 36.14664 | -5.19346 | 1507 ft | 160 kts | 282° |
| 2026-04-29 15:57 | 36.14916 | -5.20686 | 1508 ft | 160 kts | 282° |
| 2026-04-29 15:57 | 36.15168 | -5.22030 | 1507 ft | 161 kts | 281° |
| 2026-04-29 15:58 | 36.15416 | -5.23354 | 1511 ft | 151 kts | 281° |
| 2026-04-29 15:58 | 36.15470 | -5.24595 | 1524 ft | 140 kts | 265° |
| 2026-04-29 15:58 | 36.15423 | -5.25785 | 1469 ft | 138 kts | 266° |
| 2026-04-29 15:58 | 36.15390 | -5.26978 | 1258 ft | 136 kts | 266° |
| 2026-04-29 15:59 | 36.15370 | -5.28147 | 1010 ft | 135 kts | 268° |
| 2026-04-29 15:59 | 36.15345 | -5.29306 | 818 ft | 135 kts | 265° |
| 2026-04-29 15:59 | 36.15295 | -5.30468 | 607 ft | 136 kts | 263° |
| 2026-04-29 15:59 | 36.15242 | -5.31641 | 413 ft | 136 kts | 263° |
| 2026-04-29 16:00 | 36.15207 | -5.32816 | 241 ft | 139 kts | 265° |
| 2026-04-29 16:00 | 36.15156 | -5.34002 | 84 ft | 138 kts | 265° |
| 2026-04-29 16:00 | 36.15110 | -5.35102 | 23 ft | 103 kts | 268° |
| 2026-04-29 16:00 | 36.15096 | -5.35626 | 19 ft | 33 kts | 269° |
| 2026-04-29 16:01 | 36.15090 | -5.35833 | 18 ft | 12 kts | 257° |
| 2026-04-29 16:01 | 36.15066 | -5.35930 | 18 ft | 9 kts | 286° |
| 2026-04-29 16:01 | 36.15103 | -5.35912 | 17 ft | 7 kts | 78° |
| 2026-04-29 16:01 | 36.15099 | -5.35858 | 18 ft | 5 kts | 99° |
| 2026-04-29 16:02 | 36.15094 | -5.35810 | 18 ft | 8 kts | 94° |
| 2026-04-29 16:02 | 36.15098 | -5.35707 | 18 ft | 15 kts | 87° |
| 2026-04-29 16:02 | 36.15102 | -5.35595 | 24 ft | 11 kts | 87° |
| 2026-04-29 16:02 | 36.15105 | -5.35512 | 23 ft | 8 kts | 88° |
| 2026-04-29 16:03 | 36.15108 | -5.35431 | 23 ft | 12 kts | 87° |
| 2026-04-29 16:03 | 36.15114 | -5.35301 | 27 ft | 18 kts | 86° |
| 2026-04-29 16:03 | 36.15123 | -5.35117 | 23 ft | 24 kts | 88° |
| 2026-04-29 16:03 | 36.15131 | -5.34881 | 23 ft | 31 kts | 87° |
| 2026-04-29 16:04 | 36.15140 | -5.34701 | 24 ft | 15 kts | 63° |
| 2026-04-29 16:04 | 36.15224 | -5.34676 | 20 ft | 11 kts | 5° |
| 2026-04-29 16:04 | 36.15304 | -5.34674 | 17 ft | 4 kts | 0° |
| 2026-04-29 16:04 | 36.15305 | -5.34674 | 17 ft | 0 kts | 0° |